Gertrude, Kentucky
Current Conditions -  °F | °C
As of 10:35 PM on Saturday 22 Nov 2014 (Local Time) from KFGX Reporting Station
Clear Clear  
Wind Chill: 44°   Ceiling: Unl
Heat Index: 47°   Visibility: 10mi
Dew Point: 29°   Wind: 6mph
Humidity: 51%   Direction: 180°S
Pressure: 30.12"   Gusts: NA
Location:  38.6516°N, 84.0942°W
Report Text: KFGX 230335Z AUTO 18005KT 10SM CLR 08/M01 A3012 RMK AO2 T00831014
Loading
Personal Weather Stations






























Interactive Weather Map New forecast layout! Learn more

10-Day Weather Forecast

Advertisements
Track Severe Weather on mobile